createdAt,value
2017-02-26T00:00:31.679Z,0
2017-02-26T00:01:31.679Z,0
2017-02-26T00:02:31.673Z,0
2017-02-26T00:03:31.664Z,0
2017-02-26T00:04:31.636Z,0
2017-02-26T00:05:30.864Z,0
2017-02-26T00:06:31.228Z,0
2017-02-26T00:07:30.841Z,0
2017-02-26T00:08:31.214Z,0
2017-02-26T00:09:31.650Z,0
2017-02-26T00:10:31.582Z,0
2017-02-26T00:11:31.205Z,0
2017-02-26T00:12:31.557Z,0
2017-02-26T00:13:31.551Z,0
2017-02-26T00:14:31.532Z,0
2017-02-26T00:15:31.535Z,0
2017-02-26T00:16:31.124Z,0
2017-02-26T00:17:31.525Z,0
2017-02-26T00:18:31.113Z,0
2017-02-26T00:19:31.491Z,0
2017-02-26T00:20:31.467Z,0
2017-02-26T00:21:31.497Z,0
2017-02-26T00:22:31.474Z,0
2017-02-26T00:23:31.435Z,0
2017-02-26T00:24:31.079Z,0
2017-02-26T00:25:31.439Z,0
2017-02-26T00:26:31.422Z,0
2017-02-26T00:27:31.391Z,0
2017-02-26T00:28:31.004Z,0
2017-02-26T00:29:31.411Z,0
2017-02-26T00:30:30.587Z,0
2017-02-26T00:31:31.371Z,0
2017-02-26T00:32:31.356Z,0
2017-02-26T00:33:31.587Z,0
2017-02-26T00:34:31.342Z,0
2017-02-26T00:35:30.938Z,0
2017-02-26T00:36:30.923Z,0
2017-02-26T00:37:30.923Z,0
2017-02-26T00:38:31.295Z,0
2017-02-26T00:39:31.282Z,0
2017-02-26T00:40:31.282Z,0
2017-02-26T00:41:30.871Z,0
2017-02-26T00:42:31.254Z,0
2017-02-26T00:43:30.859Z,0
2017-02-26T00:44:31.222Z,0
2017-02-26T00:45:30.429Z,0
2017-02-26T00:46:31.194Z,0
2017-02-26T00:47:30.809Z,0
2017-02-26T00:48:30.787Z,0
2017-02-26T00:49:31.160Z,0
2017-02-26T00:50:30.776Z,0
2017-02-26T00:51:31.153Z,0
2017-02-26T00:52:30.796Z,0
2017-02-26T00:53:31.120Z,0
2017-02-26T00:54:31.108Z,0
2017-02-26T00:55:31.096Z,0
2017-02-26T00:56:30.326Z,0
2017-02-26T00:57:30.344Z,0
2017-02-26T00:58:31.084Z,0
2017-02-26T00:59:31.374Z,0
2017-02-26T01:00:31.052Z,0
2017-02-26T01:01:30.270Z,0
2017-02-26T01:02:30.253Z,0
2017-02-26T01:03:31.027Z,0
2017-02-26T01:04:31.005Z,0
2017-02-26T01:05:31.029Z,0
2017-02-26T01:06:30.987Z,0
2017-02-26T01:07:31.009Z,0
2017-02-26T01:08:30.998Z,0
2017-02-26T01:09:30.572Z,0
2017-02-26T01:10:30.948Z,0
2017-02-26T01:11:30.963Z,0
2017-02-26T01:12:30.541Z,0
2017-02-26T01:13:30.928Z,0
2017-02-26T01:14:30.518Z,0
2017-02-26T01:15:30.936Z,0
2017-02-26T01:16:30.900Z,0
2017-02-26T01:17:30.493Z,0
2017-02-26T01:18:30.481Z,0
2017-02-26T01:19:30.865Z,0
2017-02-26T01:20:30.503Z,0
2017-02-26T01:21:30.447Z,0
2017-02-26T01:22:30.450Z,0
2017-02-26T01:23:30.461Z,0
2017-02-26T01:24:30.802Z,0
2017-02-26T01:25:30.794Z,0
2017-02-26T01:26:30.788Z,0
2017-02-26T01:27:30.398Z,0
2017-02-26T01:28:30.760Z,0
2017-02-26T01:29:30.759Z,0
2017-02-26T01:30:30.764Z,0
2017-02-26T01:31:30.350Z,0
2017-02-26T01:32:30.340Z,0
2017-02-26T01:33:29.954Z,0
2017-02-26T01:34:30.318Z,0
2017-02-26T01:35:30.302Z,0
2017-02-26T01:36:30.688Z,0
2017-02-26T01:37:30.284Z,0
2017-02-26T01:38:30.669Z,0
2017-02-26T01:39:30.647Z,0
2017-02-26T01:40:29.901Z,0
2017-02-26T01:41:30.634Z,0
2017-02-26T01:42:30.624Z,0
2017-02-26T01:43:30.628Z,0
2017-02-26T01:44:30.224Z,0
2017-02-26T01:45:30.594Z,0
2017-02-26T01:46:30.219Z,0
2017-02-26T01:47:30.191Z,0
2017-02-26T01:48:30.197Z,0
2017-02-26T01:49:30.573Z,0
2017-02-26T01:50:30.550Z,0
2017-02-26T01:51:30.566Z,0
2017-02-26T01:52:30.546Z,0
2017-02-26T01:53:30.512Z,0
2017-02-26T01:54:30.558Z,0
2017-02-26T01:55:30.512Z,0
2017-02-26T01:56:30.480Z,0
2017-02-26T01:57:30.510Z,0
2017-02-26T01:58:30.459Z,0
2017-02-26T01:59:30.069Z,0
2017-02-26T02:00:30.477Z,0
2017-02-26T02:01:29.668Z,0
2017-02-26T02:02:30.461Z,0
2017-02-26T02:03:30.432Z,0
2017-02-26T02:04:30.023Z,0
2017-02-26T02:05:30.410Z,0
2017-02-26T02:06:30.382Z,0
2017-02-26T02:07:30.377Z,0
2017-02-26T02:08:30.365Z,0
2017-02-26T02:09:30.352Z,0
2017-02-26T02:10:29.957Z,0
2017-02-26T02:11:30.357Z,0
2017-02-26T02:12:29.932Z,0
2017-02-26T02:13:29.922Z,0
2017-02-26T02:14:30.317Z,0
2017-02-26T02:15:30.295Z,0
2017-02-26T02:16:29.129Z,0
2017-02-26T02:17:29.886Z,0
2017-02-26T02:18:29.888Z,0
2017-02-26T02:19:30.262Z,0
2017-02-26T02:20:30.245Z,0
2017-02-26T02:21:30.240Z,0
2017-02-26T02:22:30.232Z,0
2017-02-26T02:23:30.214Z,0
2017-02-26T02:24:29.454Z,0
2017-02-26T02:25:30.191Z,0
2017-02-26T02:26:30.182Z,0
2017-02-26T02:27:29.792Z,0
2017-02-26T02:28:29.785Z,0
2017-02-26T02:29:30.168Z,0
2017-02-26T02:30:30.143Z,0
2017-02-26T02:31:29.758Z,0
2017-02-26T02:32:29.755Z,0
2017-02-26T02:33:29.383Z,0
2017-02-26T02:34:29.726Z,0
2017-02-26T02:35:30.095Z,0
2017-02-26T02:36:29.716Z,0
2017-02-26T02:37:30.078Z,0
2017-02-26T02:38:29.302Z,0
2017-02-26T02:39:29.664Z,0
2017-02-26T02:40:29.670Z,0
2017-02-26T02:41:30.052Z,0
2017-02-26T02:42:30.029Z,0
2017-02-26T02:43:29.636Z,0
2017-02-26T02:44:30.022Z,0
2017-02-26T02:45:29.617Z,0
2017-02-26T02:46:29.595Z,0
2017-02-26T02:47:30.011Z,0
2017-02-26T02:48:29.591Z,0
2017-02-26T02:49:29.987Z,0
2017-02-26T02:50:29.957Z,0
2017-02-26T02:51:29.935Z,0
2017-02-26T02:52:29.936Z,0
2017-02-26T02:53:29.919Z,0
2017-02-26T02:54:29.938Z,0
2017-02-26T02:55:29.899Z,0
2017-02-26T02:56:29.886Z,0
2017-02-26T02:57:29.493Z,0
2017-02-26T02:58:29.887Z,0
2017-02-26T02:59:29.858Z,0
2017-02-26T03:00:29.863Z,0
2017-02-26T03:01:29.838Z,0
2017-02-26T03:02:29.857Z,0
2017-02-26T03:03:29.815Z,0
2017-02-26T03:04:29.810Z,0
2017-02-26T03:05:29.413Z,0
2017-02-26T03:06:29.414Z,0
2017-02-26T03:07:29.779Z,0
2017-02-26T03:08:29.779Z,0
2017-02-26T03:09:29.814Z,0
2017-02-26T03:10:29.755Z,0
2017-02-26T03:11:29.374Z,0
2017-02-26T03:12:29.731Z,0
2017-02-26T03:13:29.724Z,0
2017-02-26T03:14:29.360Z,0
2017-02-26T03:15:29.709Z,0
2017-02-26T03:16:29.704Z,0
2017-02-26T03:17:29.300Z,0
2017-02-26T03:18:29.694Z,0
2017-02-26T03:19:29.679Z,0
2017-02-26T03:20:29.280Z,0
2017-02-26T03:21:29.650Z,0
2017-02-26T03:22:29.660Z,0
2017-02-26T03:23:29.639Z,0
2017-02-26T03:24:29.616Z,0
2017-02-26T03:25:29.613Z,0
2017-02-26T03:26:29.595Z,0
2017-02-26T03:27:29.583Z,0
2017-02-26T03:28:29.206Z,0
2017-02-26T03:29:29.564Z,0
2017-02-26T03:30:29.588Z,0
2017-02-26T03:31:29.561Z,0
2017-02-26T03:32:29.539Z,0
2017-02-26T03:33:29.532Z,0
2017-02-26T03:34:29.512Z,0
2017-02-26T03:35:29.521Z,0
2017-02-26T03:36:29.499Z,0
2017-02-26T03:37:29.485Z,0
2017-02-26T03:38:29.481Z,0
2017-02-26T03:39:29.478Z,0
2017-02-26T03:40:29.063Z,0
2017-02-26T03:41:29.070Z,0
2017-02-26T03:42:29.447Z,0
2017-02-26T03:43:29.061Z,0
2017-02-26T03:44:29.413Z,0
2017-02-26T03:45:29.025Z,0
2017-02-26T03:46:29.400Z,0
2017-02-26T03:47:29.383Z,0
2017-02-26T03:48:29.385Z,0
2017-02-26T03:49:29.379Z,0
2017-02-26T03:50:28.582Z,0
2017-02-26T03:51:29.374Z,0
2017-02-26T03:52:28.984Z,0
2017-02-26T03:53:29.354Z,0
2017-02-26T03:54:29.376Z,0
2017-02-26T03:55:29.307Z,0
2017-02-26T03:56:29.298Z,0
2017-02-26T03:57:29.303Z,0
2017-02-26T03:58:29.281Z,0
2017-02-26T03:59:29.281Z,0
2017-02-26T04:00:29.319Z,0
2017-02-26T04:01:29.258Z,0
2017-02-26T04:02:28.882Z,0
2017-02-26T04:03:29.234Z,0
2017-02-26T04:04:29.230Z,0
2017-02-26T04:05:29.244Z,0
2017-02-26T04:06:29.234Z,0
2017-02-26T04:07:29.211Z,0
2017-02-26T04:08:29.204Z,0
2017-02-26T04:09:29.184Z,0
2017-02-26T04:10:29.175Z,0
2017-02-26T04:11:29.204Z,0
2017-02-26T04:12:29.144Z,0
2017-02-26T04:13:28.767Z,0
2017-02-26T04:14:29.159Z,0
2017-02-26T04:15:29.129Z,0
2017-02-26T04:16:29.111Z,0
2017-02-26T04:17:29.110Z,0
2017-02-26T04:18:29.095Z,0
2017-02-26T04:19:29.086Z,0
2017-02-26T04:20:29.075Z,0
2017-02-26T04:21:29.059Z,0
2017-02-26T04:22:29.057Z,0
2017-02-26T04:23:29.042Z,0
2017-02-26T04:24:29.037Z,0
2017-02-26T04:25:29.019Z,0
2017-02-26T04:26:29.025Z,0
2017-02-26T04:27:29.009Z,0
2017-02-26T04:28:28.626Z,0
2017-02-26T04:29:28.980Z,0
2017-02-26T04:30:29.000Z,0
2017-02-26T04:31:28.961Z,0
2017-02-26T04:32:28.570Z,0
2017-02-26T04:33:28.991Z,0
2017-02-26T04:34:28.940Z,0
2017-02-26T04:35:29.187Z,0
2017-02-26T04:36:28.919Z,0
2017-02-26T04:37:28.902Z,0
2017-02-26T04:38:28.517Z,0
2017-02-26T04:39:28.885Z,0
2017-02-26T04:40:28.130Z,0
2017-02-26T04:41:28.488Z,0
2017-02-26T04:42:28.469Z,0
2017-02-26T04:43:28.878Z,0
2017-02-26T04:44:28.859Z,0
2017-02-26T04:45:28.848Z,0
2017-02-26T04:46:28.828Z,0
2017-02-26T04:47:28.822Z,0
2017-02-26T04:48:28.041Z,0
2017-02-26T04:49:28.400Z,0
2017-02-26T04:50:28.774Z,0
2017-02-26T04:51:28.783Z,0
2017-02-26T04:52:28.374Z,0
2017-02-26T04:53:28.750Z,0
2017-02-26T04:54:28.743Z,0
2017-02-26T04:55:28.744Z,0
2017-02-26T04:56:28.730Z,0
2017-02-26T04:57:28.708Z,0
2017-02-26T04:58:28.732Z,0
2017-02-26T04:59:28.697Z,0
2017-02-26T05:00:28.702Z,0
2017-02-26T05:01:28.684Z,0
2017-02-26T05:02:28.663Z,0
2017-02-26T05:03:28.652Z,0
2017-02-26T05:04:28.862Z,0
2017-02-26T05:05:28.634Z,0
2017-02-26T05:06:28.622Z,0
2017-02-26T05:07:28.612Z,0
2017-02-26T05:08:28.606Z,0
2017-02-26T05:09:28.638Z,0
2017-02-26T05:10:28.596Z,0
2017-02-26T05:11:28.576Z,0
2017-02-26T05:12:28.196Z,0
2017-02-26T05:13:28.573Z,0
2017-02-26T05:14:28.172Z,0
2017-02-26T05:15:28.571Z,0
2017-02-26T05:16:28.150Z,0
2017-02-26T05:17:28.150Z,0
2017-02-26T05:18:28.138Z,0
2017-02-26T05:19:28.505Z,0
2017-02-26T05:20:27.724Z,0
2017-02-26T05:21:28.488Z,0
2017-02-26T05:22:28.478Z,0
2017-02-26T05:23:28.464Z,0
2017-02-26T05:24:28.449Z,0
2017-02-26T05:25:28.076Z,0
2017-02-26T05:26:28.047Z,0
2017-02-26T05:27:28.422Z,0
2017-02-26T05:28:28.037Z,0
2017-02-26T05:29:28.409Z,0
2017-02-26T05:30:28.407Z,0
2017-02-26T05:31:28.000Z,0
2017-02-26T05:32:28.000Z,0
2017-02-26T05:33:28.021Z,0
2017-02-26T05:34:28.352Z,0
2017-02-26T05:35:28.359Z,0
2017-02-26T05:36:28.358Z,0
2017-02-26T05:37:27.951Z,0
2017-02-26T05:38:27.923Z,0
2017-02-26T05:39:27.926Z,0
2017-02-26T05:40:27.908Z,0
2017-02-26T05:41:27.906Z,0
2017-02-26T05:42:28.272Z,0
2017-02-26T05:43:27.888Z,0
2017-02-26T05:44:27.479Z,0
2017-02-26T05:45:27.864Z,0
2017-02-26T05:46:28.233Z,0
2017-02-26T05:47:28.225Z,0
2017-02-26T05:48:27.843Z,0
2017-02-26T05:49:27.825Z,0
2017-02-26T05:50:27.802Z,0
2017-02-26T05:51:27.803Z,0
2017-02-26T05:52:28.169Z,0
2017-02-26T05:53:27.776Z,0
2017-02-26T05:54:27.763Z,0
2017-02-26T05:55:27.752Z,0
2017-02-26T05:56:28.131Z,0
2017-02-26T05:57:28.154Z,0
2017-02-26T05:58:27.728Z,0
2017-02-26T05:59:27.723Z,0
2017-02-26T06:00:27.718Z,0
2017-02-26T06:01:28.083Z,0
2017-02-26T06:02:28.103Z,0
2017-02-26T06:03:28.068Z,0
2017-02-26T06:04:28.050Z,0
2017-02-26T06:05:28.043Z,0
2017-02-26T06:06:28.052Z,5
2017-02-26T06:07:27.647Z,5
2017-02-26T06:08:28.034Z,5
2017-02-26T06:09:28.022Z,5
2017-02-26T06:10:28.001Z,5
2017-02-26T06:11:27.609Z,5
2017-02-26T06:12:27.979Z,5
2017-02-26T06:13:27.974Z,5
2017-02-26T06:14:27.949Z,5
2017-02-26T06:15:27.575Z,5
2017-02-26T06:16:27.941Z,10
2017-02-26T06:17:27.952Z,10
2017-02-26T06:18:27.944Z,10
2017-02-26T06:19:27.923Z,10
2017-02-26T06:20:27.527Z,10
2017-02-26T06:21:27.904Z,15
2017-02-26T06:22:27.871Z,15
2017-02-26T06:23:27.507Z,15
2017-02-26T06:24:27.869Z,15
2017-02-26T06:25:27.872Z,20
2017-02-26T06:26:27.843Z,25
2017-02-26T06:27:27.842Z,25
2017-02-26T06:28:27.828Z,25
2017-02-26T06:29:27.826Z,25
2017-02-26T06:30:27.845Z,25
2017-02-26T06:31:27.802Z,20
2017-02-26T06:32:27.776Z,20
2017-02-26T06:33:27.781Z,20
2017-02-26T06:34:27.764Z,25
2017-02-26T06:35:27.379Z,25
2017-02-26T06:36:27.397Z,25
2017-02-26T06:37:27.729Z,25
2017-02-26T06:38:27.721Z,25
2017-02-26T06:39:27.332Z,25
2017-02-26T06:40:27.744Z,25
2017-02-26T06:41:27.694Z,30
2017-02-26T06:42:27.691Z,25
2017-02-26T06:43:27.688Z,25
2017-02-26T06:44:27.660Z,25
2017-02-26T06:45:27.920Z,25
2017-02-26T06:46:27.271Z,25
2017-02-26T06:47:27.254Z,30
2017-02-26T06:48:27.631Z,35
2017-02-26T06:49:27.611Z,35
2017-02-26T06:50:27.625Z,35
2017-02-26T06:51:27.614Z,40
2017-02-26T06:52:27.616Z,45
2017-02-26T06:53:27.582Z,45
2017-02-26T06:54:27.185Z,45
2017-02-26T06:55:27.567Z,40
2017-02-26T06:56:27.548Z,40
2017-02-26T06:57:27.150Z,40
2017-02-26T06:58:27.531Z,40
2017-02-26T06:59:27.139Z,45
2017-02-26T07:00:27.510Z,45
2017-02-26T07:01:27.527Z,45
2017-02-26T07:02:27.487Z,50
2017-02-26T07:03:27.483Z,50
2017-02-26T07:04:26.731Z,45
2017-02-26T07:05:27.083Z,50
2017-02-26T07:06:27.464Z,50
2017-02-26T07:07:27.439Z,55
2017-02-26T07:08:27.063Z,55
2017-02-26T07:09:27.416Z,55
2017-02-26T07:10:27.048Z,60
2017-02-26T07:11:27.402Z,60
2017-02-26T07:12:27.010Z,55
2017-02-26T07:13:27.000Z,60
2017-02-26T07:14:27.022Z,65
2017-02-26T07:15:27.362Z,70
2017-02-26T07:16:27.383Z,70
2017-02-26T07:17:27.346Z,75
2017-02-26T07:18:26.974Z,75
2017-02-26T07:19:26.962Z,75
2017-02-26T07:20:27.369Z,75
2017-02-26T07:21:26.920Z,70
2017-02-26T07:22:27.298Z,70
2017-02-26T07:23:27.320Z,70
2017-02-26T07:24:27.343Z,75
2017-02-26T07:25:27.268Z,80
2017-02-26T07:26:27.286Z,80
2017-02-26T07:27:27.259Z,80
2017-02-26T07:28:26.469Z,80
2017-02-26T07:29:27.275Z,80
2017-02-26T07:30:27.234Z,80
2017-02-26T07:31:27.221Z,85
2017-02-26T07:32:27.206Z,85
2017-02-26T07:33:27.194Z,90
2017-02-26T07:34:27.200Z,95
2017-02-26T07:35:26.831Z,100
2017-02-26T07:36:27.180Z,105
2017-02-26T07:37:27.179Z,110
2017-02-26T07:38:27.156Z,120
2017-02-26T07:39:27.153Z,125
2017-02-26T07:40:27.131Z,120
2017-02-26T07:41:26.750Z,120
2017-02-26T07:42:27.113Z,115
2017-02-26T07:43:27.110Z,110
2017-02-26T07:44:26.730Z,100
2017-02-26T07:45:27.104Z,100
2017-02-26T07:46:26.718Z,95
2017-02-26T07:47:27.071Z,90
2017-02-26T07:48:27.080Z,80
2017-02-26T07:49:26.664Z,90
2017-02-26T07:50:27.050Z,105
2017-02-26T07:51:26.647Z,110
2017-02-26T07:52:26.648Z,110
2017-02-26T07:53:26.643Z,110
2017-02-26T07:54:26.247Z,110
2017-02-26T07:55:26.626Z,125
2017-02-26T07:56:27.006Z,135
2017-02-26T07:57:27.005Z,135
2017-02-26T07:58:26.605Z,115
2017-02-26T07:59:26.961Z,105
2017-02-26T08:00:26.579Z,100
2017-02-26T08:01:26.174Z,105
2017-02-26T08:02:26.570Z,105
2017-02-26T08:03:26.930Z,115
2017-02-26T08:04:26.928Z,120
2017-02-26T08:05:26.905Z,120
2017-02-26T08:06:26.919Z,130
2017-02-26T08:07:26.908Z,135
2017-02-26T08:08:26.876Z,140
2017-02-26T08:09:26.889Z,145
2017-02-26T08:10:26.872Z,150
2017-02-26T08:11:26.855Z,160
2017-02-26T08:12:26.476Z,175
2017-02-26T08:13:26.836Z,190
2017-02-26T08:14:26.833Z,200
2017-02-26T08:15:26.832Z,210
2017-02-26T08:16:26.436Z,225
2017-02-26T08:17:26.413Z,230
2017-02-26T08:18:26.791Z,235
2017-02-26T08:19:26.404Z,235
2017-02-26T08:20:26.785Z,220
2017-02-26T08:21:26.759Z,205
2017-02-26T08:22:26.382Z,195
2017-02-26T08:23:26.760Z,195
2017-02-26T08:24:26.753Z,195
2017-02-26T08:25:26.732Z,210
2017-02-26T08:26:26.350Z,205
2017-02-26T08:27:26.731Z,205
2017-02-26T08:28:26.710Z,210
2017-02-26T08:29:26.720Z,210
2017-02-26T08:30:26.702Z,210
2017-02-26T08:31:26.696Z,205
2017-02-26T08:32:26.301Z,230
2017-02-26T08:33:26.671Z,235
2017-02-26T08:34:26.653Z,225
2017-02-26T08:35:26.661Z,245
2017-02-26T08:36:26.683Z,245
2017-02-26T08:37:26.623Z,215
2017-02-26T08:38:26.624Z,215
2017-02-26T08:39:26.614Z,210
2017-02-26T08:40:26.601Z,215
2017-02-26T08:41:26.593Z,230
2017-02-26T08:42:26.586Z,210
2017-02-26T08:43:26.573Z,210
2017-02-26T08:44:26.196Z,210
2017-02-26T08:45:26.572Z,195
2017-02-26T08:46:26.575Z,180
2017-02-26T08:47:26.549Z,180
2017-02-26T08:48:26.171Z,180
2017-02-26T08:49:26.529Z,190
2017-02-26T08:50:26.521Z,200
2017-02-26T08:51:26.559Z,220
2017-02-26T08:52:26.502Z,230
2017-02-26T08:53:26.120Z,230
2017-02-26T08:54:26.493Z,240
2017-02-26T08:55:26.529Z,260
2017-02-26T08:56:26.471Z,255
2017-02-26T08:57:26.485Z,240
2017-02-26T08:58:26.471Z,240
2017-02-26T08:59:26.490Z,250
2017-02-26T09:00:26.495Z,270
2017-02-26T09:01:26.442Z,295
2017-02-26T09:02:26.422Z,315
2017-02-26T09:03:26.416Z,335
2017-02-26T09:04:26.415Z,355
2017-02-26T09:05:26.411Z,340
2017-02-26T09:06:26.398Z,350
2017-02-26T09:07:26.404Z,350
2017-02-26T09:08:26.375Z,335
2017-02-26T09:09:26.374Z,320
2017-02-26T09:10:26.391Z,325
2017-02-26T09:11:26.390Z,330
2017-02-26T09:12:25.983Z,340
2017-02-26T09:13:25.962Z,345
2017-02-26T09:14:26.378Z,345
2017-02-26T09:15:26.336Z,350
2017-02-26T09:16:26.344Z,345
2017-02-26T09:17:25.921Z,335
2017-02-26T09:18:26.317Z,300
2017-02-26T09:19:26.315Z,270
2017-02-26T09:20:26.341Z,235
2017-02-26T09:21:26.284Z,220
2017-02-26T09:22:26.302Z,195
2017-02-26T09:23:26.294Z,195
2017-02-26T09:24:26.268Z,205
2017-02-26T09:25:26.274Z,220
2017-02-26T09:26:25.872Z,225
2017-02-26T09:27:26.243Z,230
2017-02-26T09:28:25.867Z,230
2017-02-26T09:29:26.238Z,220
2017-02-26T09:30:26.228Z,205
2017-02-26T09:31:26.209Z,195
2017-02-26T09:32:26.231Z,180
2017-02-26T09:33:25.834Z,165
2017-02-26T09:34:26.215Z,185
2017-02-26T09:35:26.191Z,200
2017-02-26T09:36:26.172Z,225
2017-02-26T09:37:26.161Z,250
2017-02-26T09:38:26.175Z,245
2017-02-26T09:39:25.389Z,245
2017-02-26T09:40:26.147Z,260
2017-02-26T09:41:26.143Z,240
2017-02-26T09:42:26.142Z,235
2017-02-26T09:43:25.740Z,230
2017-02-26T09:44:26.121Z,255
2017-02-26T09:45:26.105Z,280
2017-02-26T09:46:26.176Z,275
2017-02-26T09:47:26.102Z,270
2017-02-26T09:48:25.321Z,290
2017-02-26T09:49:26.400Z,305
2017-02-26T09:50:26.079Z,305
2017-02-26T09:51:26.066Z,300
2017-02-26T09:52:26.114Z,310
2017-02-26T09:53:26.050Z,320
2017-02-26T09:54:26.053Z,295
2017-02-26T09:55:25.281Z,280
2017-02-26T09:56:25.640Z,260
2017-02-26T09:57:26.021Z,250
2017-02-26T09:58:26.014Z,225
2017-02-26T09:59:26.026Z,205
2017-02-26T10:00:26.035Z,170
2017-02-26T10:01:26.009Z,150
2017-02-26T10:02:25.991Z,150
2017-02-26T10:03:25.990Z,170
2017-02-26T10:04:25.613Z,200
2017-02-26T10:05:25.603Z,205
2017-02-26T10:06:25.975Z,220
2017-02-26T10:07:25.952Z,205
2017-02-26T10:08:25.950Z,180
2017-02-26T10:09:25.945Z,155
2017-02-26T10:10:25.589Z,160
2017-02-26T10:11:25.559Z,175
2017-02-26T10:12:25.553Z,175
2017-02-26T10:13:24.753Z,175
2017-02-26T10:14:25.530Z,170
2017-02-26T10:15:25.539Z,175
2017-02-26T10:16:25.511Z,185
2017-02-26T10:17:25.522Z,190
2017-02-26T10:18:25.490Z,200
2017-02-26T10:19:25.894Z,230
2017-02-26T10:20:25.862Z,265
2017-02-26T10:21:25.850Z,280
2017-02-26T10:22:25.882Z,285
2017-02-26T10:23:25.865Z,260
2017-02-26T10:24:25.895Z,245
2017-02-26T10:25:25.830Z,255
2017-02-26T10:26:25.873Z,265
2017-02-26T10:27:25.808Z,265
2017-02-26T10:28:25.809Z,260
2017-02-26T10:29:25.797Z,245
2017-02-26T10:30:25.816Z,215
2017-02-26T10:31:25.833Z,190
2017-02-26T10:32:25.773Z,185
2017-02-26T10:33:25.771Z,185
2017-02-26T10:34:25.757Z,195
2017-02-26T10:35:25.758Z,205
2017-02-26T10:36:26.004Z,220
2017-02-26T10:37:25.364Z,250
2017-02-26T10:38:25.373Z,270
2017-02-26T10:39:25.740Z,270
2017-02-26T10:40:25.719Z,265
2017-02-26T10:41:25.710Z,260
2017-02-26T10:42:25.726Z,250
2017-02-26T10:43:25.314Z,255
2017-02-26T10:44:25.709Z,260
2017-02-26T10:45:25.699Z,265
2017-02-26T10:46:25.715Z,265
2017-02-26T10:47:25.285Z,270
2017-02-26T10:48:25.289Z,260
2017-02-26T10:49:25.663Z,245
2017-02-26T10:50:25.662Z,245
2017-02-26T10:51:25.275Z,270
2017-02-26T10:52:25.669Z,290
2017-02-26T10:53:25.668Z,290
2017-02-26T10:54:25.243Z,295
2017-02-26T10:55:25.631Z,275
2017-02-26T10:56:25.610Z,265
2017-02-26T10:57:25.614Z,265
2017-02-26T10:58:25.601Z,280
2017-02-26T10:59:25.602Z,300
2017-02-26T11:00:25.586Z,290
2017-02-26T11:01:25.597Z,265
2017-02-26T11:02:25.273Z,245
2017-02-26T11:03:25.590Z,245
2017-02-26T11:04:25.591Z,235
2017-02-26T11:05:25.179Z,220
2017-02-26T11:06:25.572Z,205
2017-02-26T11:07:25.538Z,195
2017-02-26T11:08:25.550Z,190
2017-02-26T11:09:25.546Z,200
2017-02-26T11:10:25.152Z,220
2017-02-26T11:11:25.564Z,240
2017-02-26T11:12:25.518Z,230
2017-02-26T11:13:25.502Z,240
2017-02-26T11:14:25.540Z,265
2017-02-26T11:15:25.530Z,270
2017-02-26T11:16:25.493Z,305
2017-02-26T11:17:25.546Z,330
2017-02-26T11:18:25.513Z,340
2017-02-26T11:19:25.462Z,320
2017-02-26T11:20:25.483Z,310
2017-02-26T11:21:25.450Z,310
2017-02-26T11:22:25.104Z,280
2017-02-26T11:23:25.441Z,240
2017-02-26T11:24:25.438Z,220
2017-02-26T11:25:25.439Z,220
2017-02-26T11:26:25.426Z,215
2017-02-26T11:27:25.024Z,210
2017-02-26T11:28:25.432Z,210
2017-02-26T11:29:25.404Z,205
2017-02-26T11:30:25.023Z,205
2017-02-26T11:31:25.007Z,195
2017-02-26T11:32:25.386Z,190
2017-02-26T11:33:25.378Z,185
2017-02-26T11:34:25.375Z,190
2017-02-26T11:35:25.364Z,195
2017-02-26T11:36:25.355Z,215
2017-02-26T11:37:25.349Z,235
2017-02-26T11:38:25.346Z,260
2017-02-26T11:39:25.341Z,270
2017-02-26T11:40:24.989Z,285
2017-02-26T11:41:25.333Z,290
2017-02-26T11:42:25.326Z,275
2017-02-26T11:43:24.537Z,250
2017-02-26T11:44:24.937Z,230
2017-02-26T11:45:25.321Z,225
2017-02-26T11:46:25.312Z,235
2017-02-26T11:47:24.928Z,255
2017-02-26T11:48:24.896Z,275
2017-02-26T11:49:24.900Z,310
2017-02-26T11:50:25.284Z,330
2017-02-26T11:51:25.313Z,355
2017-02-26T11:52:25.253Z,340
2017-02-26T11:53:25.250Z,310
2017-02-26T11:54:25.259Z,295
2017-02-26T11:55:25.256Z,315
2017-02-26T11:56:25.231Z,305
2017-02-26T11:57:24.858Z,275
2017-02-26T11:58:24.840Z,255
2017-02-26T11:59:24.832Z,245
2017-02-26T12:00:24.440Z,255
2017-02-26T12:01:25.216Z,250
2017-02-26T12:02:24.820Z,275
2017-02-26T12:03:25.195Z,290
2017-02-26T12:04:24.802Z,300
2017-02-26T12:05:24.443Z,305
2017-02-26T12:06:24.809Z,315
2017-02-26T12:07:24.793Z,330
2017-02-26T12:08:25.168Z,335
2017-02-26T12:09:24.777Z,320
2017-02-26T12:10:25.155Z,340
2017-02-26T12:11:24.755Z,345
2017-02-26T12:12:24.751Z,305
2017-02-26T12:13:25.157Z,295
2017-02-26T12:14:24.764Z,285
2017-02-26T12:15:24.752Z,300
2017-02-26T12:16:24.751Z,345
2017-02-26T12:17:25.113Z,385
2017-02-26T12:18:24.743Z,370
2017-02-26T12:19:24.727Z,350
2017-02-26T12:20:25.117Z,310
2017-02-26T12:21:25.109Z,305
2017-02-26T12:22:24.707Z,325
2017-02-26T12:23:24.696Z,355
2017-02-26T12:24:25.105Z,370
2017-02-26T12:25:24.693Z,380
2017-02-26T12:26:25.080Z,370
2017-02-26T12:27:24.678Z,355
2017-02-26T12:28:24.677Z,370
2017-02-26T12:29:24.689Z,390
2017-02-26T12:30:24.660Z,345
2017-02-26T12:31:25.050Z,270
2017-02-26T12:32:24.670Z,245
2017-02-26T12:33:25.035Z,245
2017-02-26T12:34:24.660Z,260
2017-02-26T12:35:25.031Z,300
2017-02-26T12:36:25.016Z,320
2017-02-26T12:37:25.015Z,300
2017-02-26T12:38:25.054Z,295
2017-02-26T12:39:24.999Z,285
2017-02-26T12:40:25.020Z,280
2017-02-26T12:41:25.013Z,270
2017-02-26T12:42:24.607Z,250
2017-02-26T12:43:24.989Z,255
2017-02-26T12:44:24.979Z,235
2017-02-26T12:45:24.581Z,240
2017-02-26T12:46:25.024Z,290
2017-02-26T12:47:24.980Z,320
2017-02-26T12:48:24.969Z,340
2017-02-26T12:49:24.948Z,330
2017-02-26T12:50:24.982Z,300
2017-02-26T12:51:24.954Z,295
2017-02-26T12:52:24.551Z,285
2017-02-26T12:53:24.934Z,260
2017-02-26T12:54:24.547Z,220
2017-02-26T12:55:24.930Z,220
2017-02-26T12:56:24.541Z,255
2017-02-26T12:57:24.913Z,285
2017-02-26T12:58:24.536Z,340
2017-02-26T12:59:24.533Z,400
2017-02-26T13:00:24.911Z,440
2017-02-26T13:01:24.122Z,420
2017-02-26T13:02:24.503Z,345
2017-02-26T13:03:24.496Z,320
2017-02-26T13:04:24.878Z,320
2017-02-26T13:05:24.516Z,315
2017-02-26T13:06:24.875Z,325
2017-02-26T13:07:25.113Z,310
2017-02-26T13:08:24.905Z,295
2017-02-26T13:09:24.490Z,280
2017-02-26T13:10:24.850Z,250
2017-02-26T13:11:24.846Z,235
2017-02-26T13:12:24.804Z,240
2017-02-26T13:13:24.857Z,255
2017-02-26T13:14:24.858Z,265
2017-02-26T13:15:24.835Z,275
2017-02-26T13:16:24.457Z,270
2017-02-26T13:17:24.815Z,250
2017-02-26T13:18:24.820Z,230
2017-02-26T13:19:24.824Z,215
2017-02-26T13:20:24.416Z,225
2017-02-26T13:21:24.799Z,260
2017-02-26T13:22:24.808Z,295
2017-02-26T13:23:24.400Z,310
2017-02-26T13:24:24.787Z,325
2017-02-26T13:25:24.397Z,315
2017-02-26T13:26:24.783Z,305
2017-02-26T13:27:24.798Z,310
2017-02-26T13:28:24.780Z,315
2017-02-26T13:29:24.764Z,320
2017-02-26T13:30:24.812Z,310
2017-02-26T13:31:24.751Z,325
2017-02-26T13:32:24.754Z,350
2017-02-26T13:33:24.748Z,365
2017-02-26T13:34:24.762Z,370
2017-02-26T13:35:24.735Z,365
2017-02-26T13:36:24.726Z,365
2017-02-26T13:37:24.719Z,365
2017-02-26T13:38:24.717Z,335
2017-02-26T13:39:24.724Z,305
2017-02-26T13:40:24.336Z,280
2017-02-26T13:41:24.715Z,265
2017-02-26T13:42:24.331Z,250
2017-02-26T13:43:24.700Z,245
2017-02-26T13:44:24.696Z,265
2017-02-26T13:45:24.684Z,285
2017-02-26T13:46:24.314Z,290
2017-02-26T13:47:24.685Z,285
2017-02-26T13:48:24.672Z,270
2017-02-26T13:49:24.669Z,250
2017-02-26T13:50:24.282Z,265
2017-02-26T13:51:24.688Z,270
2017-02-26T13:52:24.682Z,255
2017-02-26T13:53:24.645Z,255
2017-02-26T13:54:24.651Z,245
2017-02-26T13:55:24.643Z,255
2017-02-26T13:56:24.652Z,260
2017-02-26T13:57:24.250Z,250
2017-02-26T13:58:24.617Z,235
2017-02-26T13:59:24.671Z,230
2017-02-26T14:00:24.642Z,230
2017-02-26T14:01:24.644Z,255
2017-02-26T14:02:24.638Z,255
2017-02-26T14:03:24.239Z,250
2017-02-26T14:04:24.645Z,230
2017-02-26T14:05:24.603Z,240
2017-02-26T14:06:24.580Z,245
2017-02-26T14:07:24.612Z,260
2017-02-26T14:08:24.567Z,270
2017-02-26T14:09:24.197Z,270
2017-02-26T14:10:24.584Z,265
2017-02-26T14:11:24.584Z,265
2017-02-26T14:12:24.810Z,270
2017-02-26T14:13:24.555Z,280
2017-02-26T14:14:24.556Z,280